createdAt,value
2022-10-11T00:01:33.256Z,5.73
2022-10-11T00:04:35.965Z,5.80
2022-10-11T00:07:39.143Z,6.53
2022-10-11T00:10:41.804Z,6.20
2022-10-11T00:13:44.351Z,6.28
2022-10-11T00:16:46.916Z,6.93
2022-10-11T00:19:49.503Z,6.75
2022-10-11T00:22:52.105Z,7.10
2022-10-11T00:25:59.546Z,7.40
2022-10-11T00:29:02.133Z,5.90
2022-10-11T00:32:05.559Z,6.03
2022-10-11T00:35:08.840Z,6.05
2022-10-11T00:38:14.570Z,6.40
2022-10-11T00:41:17.348Z,7.12
2022-10-11T00:44:23.074Z,7.70
2022-10-11T00:47:25.673Z,8.13
2022-10-11T00:50:30.808Z,6.72
2022-10-11T00:53:34.210Z,7.18
2022-10-11T00:56:38.764Z,6.40
2022-10-11T00:59:45.089Z,7.20
2022-10-11T01:02:47.621Z,6.40
2022-10-11T01:05:50.177Z,6.40
2022-10-11T01:08:53.792Z,6.47
2022-10-11T01:12:00.227Z,5.93
2022-10-11T01:15:21.595Z,6.32
2022-10-11T01:18:49.608Z,6.57
2022-10-11T01:22:23.499Z,6.03
2022-10-11T01:25:32.953Z,5.43
2022-10-11T01:28:48.554Z,5.68
2022-10-11T01:32:15.490Z,5.43
2022-10-11T01:35:21.114Z,5.83
2022-10-11T01:38:31.179Z,5.95
2022-10-11T01:41:47.227Z,5.62
2022-10-11T01:44:51.033Z,5.45
2022-10-11T01:48:11.326Z,6.00
2022-10-11T01:51:14.273Z,5.37
2022-10-11T01:54:49.773Z,5.50
2022-10-11T01:58:12.652Z,5.20
2022-10-11T02:01:20.393Z,5.70
2022-10-11T02:04:55.081Z,5.90
2022-10-11T02:08:26.924Z,5.47
2022-10-11T02:11:31.694Z,5.75
2022-10-11T02:14:40.915Z,7.50
2022-10-11T02:17:57.185Z,5.97
2022-10-11T02:21:02.884Z,5.90
2022-10-11T02:24:32.229Z,6.53
2022-10-11T02:27:38.838Z,6.53
2022-10-11T02:30:42.508Z,6.80
2022-10-11T02:34:00.506Z,7.20
2022-10-11T02:37:36.109Z,7.60
2022-10-11T02:40:42.464Z,7.03
2022-10-11T02:43:57.714Z,6.25
2022-10-11T02:47:00.762Z,6.28
2022-10-11T02:50:03.792Z,5.25
2022-10-11T02:53:06.853Z,5.60
2022-10-11T02:56:09.521Z,5.77
2022-10-11T02:59:12.064Z,5.70
2022-10-11T03:02:14.723Z,5.68
2022-10-11T03:05:17.293Z,5.93
2022-10-11T03:08:20.084Z,5.35
2022-10-11T03:11:22.673Z,6.13
2022-10-11T03:14:25.297Z,5.40
2022-10-11T03:17:36.954Z,5.97
2022-10-11T03:20:42.740Z,5.50
2022-10-11T03:23:45.257Z,5.60
2022-10-11T03:26:47.991Z,5.23
2022-10-11T03:29:50.519Z,5.20
2022-10-11T03:32:55.956Z,5.82
2022-10-11T03:35:58.514Z,5.82
2022-10-11T03:39:01.145Z,5.40
2022-10-11T03:42:04.038Z,5.33
2022-10-11T03:45:08.471Z,5.75
2022-10-11T03:48:11.574Z,5.55
2022-10-11T03:51:15.219Z,5.70
2022-10-11T03:54:17.796Z,6.15
2022-10-11T03:57:20.628Z,5.60
2022-10-11T04:00:23.228Z,5.15
2022-10-11T04:03:26.268Z,5.78
2022-10-11T04:06:28.785Z,5.75
2022-10-11T04:09:31.472Z,5.85
2022-10-11T04:12:34.538Z,5.33
2022-10-11T04:15:38.460Z,5.35
2022-10-11T04:18:43.889Z,6.32
2022-10-11T04:21:46.457Z,5.80
2022-10-11T04:24:49.083Z,5.67
2022-10-11T04:27:51.637Z,5.60
2022-10-11T04:30:54.268Z,5.75
2022-10-11T04:33:57.372Z,5.82
2022-10-11T04:37:00.002Z,6.00
2022-10-11T04:40:02.812Z,5.60
2022-10-11T04:43:05.661Z,6.17
2022-10-11T04:46:09.044Z,5.97
2022-10-11T04:49:12.106Z,5.87
2022-10-11T04:52:14.696Z,6.57
2022-10-11T04:55:17.302Z,6.17
2022-10-11T04:58:20.056Z,6.03
2022-10-11T05:01:22.629Z,6.80
2022-10-11T05:04:25.262Z,5.90
2022-10-11T05:07:27.914Z,6.10
2022-10-11T05:10:31.824Z,6.70
2022-10-11T05:13:35.903Z,6.27
2022-10-11T05:16:38.663Z,6.03
2022-10-11T05:19:42.205Z,5.93
2022-10-11T05:22:47.795Z,7.25
2022-10-11T05:25:50.326Z,8.13
2022-10-11T05:28:56.015Z,7.70
2022-10-11T05:31:58.677Z,9.27
2022-10-11T05:35:04.560Z,10.18
2022-10-11T05:38:07.163Z,9.48
2022-10-11T05:41:12.099Z,15.65
2022-10-11T05:44:14.623Z,13.67
2022-10-11T05:47:17.209Z,10.65
2022-10-11T05:50:24.019Z,11.40
2022-10-11T05:53:27.109Z,15.80
2022-10-11T05:56:29.723Z,14.60
2022-10-11T05:59:32.256Z,14.00
2022-10-11T06:02:35.274Z,15.77
2022-10-11T06:05:38.031Z,13.90
2022-10-11T06:08:40.704Z,15.52
2022-10-11T06:11:46.401Z,18.43
2022-10-11T06:14:49.068Z,17.93
2022-10-11T06:17:54.925Z,15.98
2022-10-11T06:21:00.545Z,14.87
2022-10-11T06:24:03.273Z,13.93
2022-10-11T06:27:06.028Z,12.83
2022-10-11T06:30:09.525Z,14.60
2022-10-11T06:33:12.037Z,14.52
2022-10-11T06:36:15.574Z,14.00
2022-10-11T06:39:18.149Z,13.52
2022-10-11T06:42:20.794Z,13.50
2022-10-11T06:45:23.417Z,11.90
2022-10-11T06:48:26.241Z,9.32
2022-10-11T06:51:30.315Z,9.10
2022-10-11T06:54:33.045Z,8.77
2022-10-11T06:57:36.311Z,8.18
2022-10-11T07:00:39.695Z,8.17
2022-10-11T07:03:43.242Z,9.73
2022-10-11T07:06:45.899Z,8.40
2022-10-11T07:09:48.409Z,9.10
2022-10-11T07:12:51.004Z,9.10
2022-10-11T07:15:53.966Z,9.30
2022-10-11T07:19:00.780Z,9.88
2022-10-11T07:22:03.702Z,8.98
2022-10-11T07:25:07.042Z,9.07
2022-10-11T07:28:10.198Z,8.00
2022-10-11T07:31:17.127Z,8.67
2022-10-11T07:34:20.944Z,8.57
2022-10-11T07:37:23.581Z,8.65
2022-10-11T07:40:33.876Z,8.40
2022-10-11T07:43:37.649Z,8.77
2022-10-11T07:46:40.539Z,8.40
2022-10-11T07:49:43.364Z,8.95
2022-10-11T07:52:45.888Z,8.65
2022-10-11T07:55:48.488Z,8.38
2022-10-11T07:58:52.971Z,9.80
2022-10-11T08:01:55.636Z,8.57
2022-10-11T08:04:58.251Z,8.88
2022-10-11T08:08:00.883Z,8.43
2022-10-11T08:11:04.018Z,8.07
2022-10-11T08:14:09.136Z,8.13
2022-10-11T08:17:12.281Z,7.90
2022-10-11T08:20:14.917Z,8.25
2022-10-11T08:23:18.701Z,8.00
2022-10-11T08:26:21.570Z,8.30
2022-10-11T08:29:24.494Z,8.20
2022-10-11T08:32:27.043Z,8.23
2022-10-11T08:35:29.726Z,8.60
2022-10-11T08:38:32.900Z,8.38
2022-10-11T08:41:48.612Z,8.80
2022-10-11T08:45:10.526Z,8.23
2022-10-11T08:48:47.406Z,8.60
2022-10-11T08:52:00.303Z,7.35
2022-10-11T08:55:12.422Z,7.53
2022-10-11T08:58:22.691Z,8.15
2022-10-11T09:01:32.165Z,7.50
2022-10-11T09:04:37.877Z,7.97
2022-10-11T09:07:57.799Z,8.25
2022-10-11T09:11:21.844Z,7.85
2022-10-11T09:14:27.704Z,8.35
2022-10-11T09:17:52.183Z,7.32
2022-10-11T09:21:00.849Z,11.53
2022-10-11T09:24:13.051Z,14.32
2022-10-11T09:27:37.838Z,10.68
2022-10-11T09:30:51.397Z,9.02
2022-10-11T09:33:54.146Z,8.95
2022-10-11T09:37:04.923Z,10.13
2022-10-11T09:40:31.409Z,8.02
2022-10-11T09:43:34.473Z,8.57
2022-10-11T09:46:40.937Z,7.90
2022-10-11T09:50:01.718Z,7.57
2022-10-11T09:53:05.527Z,7.97
2022-10-11T09:56:08.736Z,7.97
2022-10-11T09:59:32.477Z,7.62
2022-10-11T10:02:47.170Z,7.50
2022-10-11T10:06:05.368Z,7.62
2022-10-11T10:09:20.377Z,8.40
2022-10-11T10:12:26.613Z,7.47
2022-10-11T10:15:39.851Z,7.53
2022-10-11T10:18:47.878Z,7.62
2022-10-11T10:21:52.948Z,7.45
2022-10-11T10:25:00.956Z,7.87
2022-10-11T10:28:19.719Z,7.55
2022-10-11T10:31:25.073Z,7.65
2022-10-11T10:34:32.291Z,8.43
2022-10-11T10:38:10.656Z,7.72
2022-10-11T10:41:14.417Z,7.20
2022-10-11T10:44:17.073Z,7.70
2022-10-11T10:47:34.435Z,7.78
2022-10-11T10:50:58.325Z,7.12
2022-10-11T10:54:11.107Z,7.70
2022-10-11T10:57:21.237Z,8.10
2022-10-11T11:00:24.835Z,8.60
2022-10-11T11:03:59.963Z,9.02
2022-10-11T11:07:11.810Z,8.40
2022-10-11T11:10:22.232Z,8.50
2022-10-11T11:13:44.850Z,8.53
2022-10-11T11:17:18.667Z,8.70
2022-10-11T11:20:32.425Z,8.70
2022-10-11T11:23:42.773Z,8.98
2022-10-11T11:27:04.519Z,8.13
2022-10-11T11:30:12.557Z,8.90
2022-10-11T11:33:40.196Z,8.38
2022-10-11T11:36:50.330Z,9.30
2022-10-11T11:39:58.175Z,9.35
2022-10-11T11:43:26.673Z,9.30
2022-10-11T11:46:38.853Z,9.33
2022-10-11T11:49:58.552Z,9.73
2022-10-11T11:53:05.277Z,9.27
2022-10-11T11:56:14.801Z,9.85
2022-10-11T11:59:47.889Z,9.70
2022-10-11T12:02:57.431Z,10.53
2022-10-11T12:06:12.284Z,11.25
2022-10-11T12:09:18.045Z,12.75
2022-10-11T12:12:37.316Z,11.25
2022-10-11T12:15:40.282Z,12.18
2022-10-11T12:18:52.224Z,11.43
2022-10-11T12:22:17.233Z,11.68
2022-10-11T12:25:22.864Z,12.82
2022-10-11T12:28:42.237Z,12.30
2022-10-11T12:31:58.993Z,12.77
2022-10-11T12:35:33.673Z,11.80
2022-10-11T12:38:38.663Z,11.10
2022-10-11T12:42:08.671Z,10.57
2022-10-11T12:45:11.224Z,11.73
2022-10-11T12:48:30.196Z,11.75
2022-10-11T12:52:01.439Z,11.20
2022-10-11T12:55:23.728Z,11.35
2022-10-11T12:58:29.190Z,11.63
2022-10-11T13:01:48.740Z,10.55
2022-10-11T13:04:51.794Z,10.60
2022-10-11T13:07:58.310Z,10.70
2022-10-11T13:11:11.006Z,11.05
2022-10-11T13:14:23.378Z,11.50
2022-10-11T13:17:37.271Z,10.52
2022-10-11T13:20:42.530Z,10.57
2022-10-11T13:23:45.330Z,10.83
2022-10-11T13:26:51.141Z,10.43
2022-10-11T13:29:56.693Z,10.20
2022-10-11T13:33:01.850Z,10.52
2022-10-11T13:36:11.070Z,10.57
2022-10-11T13:39:31.119Z,9.70
2022-10-11T13:42:34.369Z,10.00
2022-10-11T13:45:39.254Z,9.30
2022-10-11T13:48:41.913Z,10.02
2022-10-11T13:51:44.974Z,8.90
2022-10-11T13:54:55.357Z,9.40
2022-10-11T13:58:00.336Z,8.98
2022-10-11T14:01:06.479Z,9.02
2022-10-11T14:04:15.681Z,9.75
2022-10-11T14:07:26.268Z,9.38
2022-10-11T14:10:29.764Z,9.13
2022-10-11T14:13:47.161Z,8.75
2022-10-11T14:17:22.881Z,9.02
2022-10-11T14:20:35.176Z,8.80
2022-10-11T14:23:38.246Z,9.57
2022-10-11T14:27:04.177Z,9.70
2022-10-11T14:30:25.163Z,9.25
2022-10-11T14:33:28.933Z,8.93
2022-10-11T14:36:31.873Z,9.15
2022-10-11T14:39:34.571Z,8.50
2022-10-11T14:42:37.919Z,8.60
2022-10-11T14:45:40.550Z,8.32
2022-10-11T14:48:55.019Z,9.05
2022-10-11T14:51:59.240Z,8.75
2022-10-11T14:55:02.360Z,8.23
2022-10-11T14:58:05.986Z,8.70
2022-10-11T15:01:15.495Z,9.15
2022-10-11T15:04:19.031Z,8.40
2022-10-11T15:07:21.646Z,8.93
2022-10-11T15:10:26.746Z,8.95
2022-10-11T15:13:29.530Z,9.90
2022-10-11T15:16:33.042Z,9.52
2022-10-11T15:19:35.809Z,9.13
2022-10-11T15:22:38.289Z,9.23
2022-10-11T15:25:41.517Z,9.57
2022-10-11T15:28:44.284Z,8.87
2022-10-11T15:31:47.038Z,9.15
2022-10-11T15:34:49.613Z,8.48
2022-10-11T15:37:55.121Z,8.70
2022-10-11T15:40:59.553Z,8.88
2022-10-11T15:44:02.211Z,8.50
2022-10-11T15:47:05.384Z,8.60
2022-10-11T15:50:34.348Z,8.02
2022-10-11T15:53:37.120Z,7.80
2022-10-11T15:56:40.073Z,7.65
2022-10-11T15:59:56.048Z,7.23
2022-10-11T16:03:04.199Z,7.65
2022-10-11T16:06:07.566Z,7.68
2022-10-11T16:09:14.708Z,7.80
2022-10-11T16:12:20.698Z,8.20
2022-10-11T16:15:24.725Z,7.93
2022-10-11T16:18:35.098Z,8.55
2022-10-11T16:21:38.507Z,8.13
2022-10-11T16:24:41.170Z,7.70
2022-10-11T16:27:47.248Z,8.30
2022-10-11T16:30:51.044Z,8.20
2022-10-11T16:33:55.555Z,9.57
2022-10-11T16:37:01.374Z,8.65
2022-10-11T16:40:09.598Z,8.70
2022-10-11T16:43:12.243Z,9.60
2022-10-11T16:46:14.868Z,12.40
2022-10-11T16:49:23.445Z,14.70
2022-10-11T16:52:27.063Z,12.82
2022-10-11T16:55:30.074Z,12.45
2022-10-11T16:58:33.018Z,11.02
2022-10-11T17:01:35.729Z,12.90
2022-10-11T17:04:38.489Z,16.52
2022-10-11T17:07:41.104Z,18.67
2022-10-11T17:10:47.544Z,14.48
2022-10-11T17:14:05.889Z,10.90
2022-10-11T17:17:44.332Z,10.03
2022-10-11T17:21:14.587Z,9.38
2022-10-11T17:24:19.791Z,8.82
2022-10-11T17:27:25.738Z,8.52
2022-10-11T17:30:32.945Z,9.05
2022-10-11T17:37:31.190Z,8.32
2022-10-11T17:40:51.789Z,8.30
2022-10-11T17:44:19.937Z,8.63
2022-10-11T17:47:35.008Z,7.72
2022-10-11T17:50:54.177Z,8.40
2022-10-11T17:54:06.663Z,9.13
2022-10-11T17:57:15.144Z,8.20
2022-10-11T18:00:20.383Z,8.40
2022-10-11T18:03:28.673Z,7.95
2022-10-11T18:06:38.387Z,8.17
2022-10-11T18:09:50.166Z,8.27
2022-10-11T18:13:07.475Z,8.98
2022-10-11T18:16:14.425Z,8.93
2022-10-11T18:19:18.501Z,8.88
2022-10-11T18:22:21.609Z,8.50
2022-10-11T18:25:24.376Z,8.68
2022-10-11T18:28:27.291Z,8.38
2022-10-11T18:31:31.298Z,9.45
2022-10-11T18:34:35.377Z,8.55
2022-10-11T18:37:38.467Z,8.70
2022-10-11T18:40:50.956Z,9.23
2022-10-11T18:44:01.792Z,10.10
2022-10-11T18:47:04.621Z,9.43
2022-10-11T18:50:08.049Z,8.48
2022-10-11T18:53:12.804Z,8.23
2022-10-11T18:56:17.328Z,8.43
2022-10-11T18:59:20.726Z,7.90
2022-10-11T19:02:23.432Z,8.60
2022-10-11T19:05:29.180Z,7.35
2022-10-11T19:08:32.644Z,7.80
2022-10-11T19:11:35.460Z,8.32
2022-10-11T19:14:38.537Z,7.68
2022-10-11T19:17:44.502Z,8.38
2022-10-11T19:20:50.709Z,8.02
2022-10-11T19:23:55.514Z,8.27
2022-10-11T19:27:02.523Z,9.02
2022-10-11T19:30:06.468Z,8.95
2022-10-11T19:33:11.655Z,9.05
2022-10-11T19:36:14.694Z,9.30
2022-10-11T19:39:20.821Z,8.97
2022-10-11T19:42:23.480Z,8.43
2022-10-11T19:45:26.305Z,9.07
2022-10-11T19:48:29.984Z,8.77
2022-10-11T19:51:35.419Z,8.38
2022-10-11T19:54:39.255Z,9.60
2022-10-11T19:57:42.324Z,8.88
2022-10-11T20:00:45.220Z,8.68
2022-10-11T20:03:52.787Z,9.50
2022-10-11T20:06:55.502Z,9.05
2022-10-11T20:09:58.228Z,9.67
2022-10-11T20:13:00.838Z,10.68
2022-10-11T20:16:11.626Z,10.68
2022-10-11T20:19:14.404Z,9.88
2022-10-11T20:22:17.051Z,9.73
2022-10-11T20:25:25.161Z,10.07
2022-10-11T20:28:29.226Z,9.07
2022-10-11T20:31:33.497Z,9.35
2022-10-11T20:34:39.610Z,9.50
2022-10-11T20:37:45.407Z,10.07
2022-10-11T20:40:48.032Z,9.13
2022-10-11T20:43:55.654Z,9.50
2022-10-11T20:47:03.022Z,9.52
2022-10-11T20:50:07.078Z,10.25
2022-10-11T20:53:16.162Z,9.23
2022-10-11T20:56:20.785Z,9.83
2022-10-11T20:59:23.558Z,9.30
2022-10-11T21:02:26.167Z,9.23
2022-10-11T21:05:29.122Z,9.85
2022-10-11T21:08:34.995Z,9.77
2022-10-11T21:11:37.831Z,10.17
2022-10-11T21:14:40.855Z,9.30
2022-10-11T21:17:43.427Z,9.57
2022-10-11T21:20:46.331Z,9.65
2022-10-11T21:23:48.922Z,9.57
2022-10-11T21:26:51.574Z,10.33
2022-10-11T21:29:54.116Z,9.57
2022-10-11T21:32:57.690Z,9.40
2022-10-11T21:36:04.349Z,10.15
2022-10-11T21:39:07.137Z,9.30
2022-10-11T21:42:10.687Z,9.40
2022-10-11T21:45:13.449Z,9.57
2022-10-11T21:48:16.275Z,9.07
2022-10-11T21:51:30.626Z,9.43
2022-10-11T21:54:33.213Z,10.02
2022-10-11T21:57:35.895Z,9.93
2022-10-11T22:00:38.499Z,9.77
2022-10-11T22:03:41.071Z,8.82
2022-10-11T22:06:43.747Z,9.43
2022-10-11T22:09:46.367Z,10.38
2022-10-11T22:12:48.988Z,10.67
2022-10-11T22:15:51.826Z,9.43
2022-10-11T22:18:54.664Z,9.45
2022-10-11T22:21:57.271Z,9.82
2022-10-11T22:24:59.849Z,10.02
2022-10-11T22:28:02.610Z,10.47
2022-10-11T22:31:05.797Z,10.45
2022-10-11T22:34:08.425Z,9.45
2022-10-11T22:37:11.129Z,10.20
2022-10-11T22:40:13.725Z,10.68
2022-10-11T22:43:16.625Z,11.60
2022-10-11T22:46:19.260Z,11.75
2022-10-11T22:49:22.029Z,11.35
2022-10-11T22:52:24.677Z,11.80
2022-10-11T22:55:27.283Z,10.87
2022-10-11T22:58:29.921Z,11.80
2022-10-11T23:01:32.674Z,11.32
2022-10-11T23:04:35.254Z,10.23
2022-10-11T23:07:40.906Z,11.63
2022-10-11T23:10:43.554Z,10.27
2022-10-11T23:13:46.319Z,10.23
2022-10-11T23:16:52.602Z,10.68
2022-10-11T23:19:55.490Z,11.18
2022-10-11T23:22:58.123Z,11.93
2022-10-11T23:26:11.561Z,12.27
2022-10-11T23:29:14.148Z,11.37
2022-10-11T23:32:16.891Z,11.20
2022-10-11T23:35:19.509Z,10.35
2022-10-11T23:38:22.288Z,10.38
2022-10-11T23:41:26.908Z,11.07
2022-10-11T23:44:32.568Z,10.07
2022-10-11T23:47:35.530Z,10.02
2022-10-11T23:50:38.393Z,11.50
2022-10-11T23:53:40.997Z,11.75
2022-10-11T23:56:46.604Z,11.75
2022-10-11T23:59:49.270Z,10.90
